Time;durP1;ratioP1;P1;durP2;ratioP2;P2;SDS_P1;SDS_P2;PMS_P1;PMS_P2;Temp;Humidity;BMP_temperature;BMP_pressure;BME280_temperature;BME280_humidity;BME280_pressure;Samples;Min_cycle;Max_cycle;Signal;HPM_P1;HPM_P2
2022/07/19 00:01:54;;;;;;;4.20;2.50;;;;;;;18.65;58.82;96304.94;5010954;28;24443;-74
2022/07/19 00:04:20;;;;;;;4.68;2.35;;;;;;;18.70;58.47;96305.34;5007418;28;24514;-74
2022/07/19 00:06:46;;;;;;;6.63;2.33;;;;;;;18.77;58.09;96308.31;5008683;28;24467;-73
2022/07/19 00:09:13;;;;;;;3.80;2.30;;;;;;;18.74;58.54;96304.16;5003770;28;24444;-74
2022/07/19 00:11:39;;;;;;;3.28;2.45;;;;;;;18.72;57.68;96305.25;5007665;28;24436;-74
2022/07/19 00:14:06;;;;;;;4.23;2.20;;;;;;;18.66;56.94;96295.25;5005615;28;24440;-74
2022/07/19 00:16:32;;;;;;;4.38;2.50;;;;;;;18.82;57.64;96303.47;5008531;28;24996;-74
2022/07/19 00:19:00;;;;;;;5.03;2.22;;;;;;;18.84;55.78;96298.94;5008025;28;25008;-74
2022/07/19 00:21:26;;;;;;;2.92;2.00;;;;;;;18.96;56.57;96310.16;5009259;28;24837;-74
2022/07/19 00:23:53;;;;;;;3.53;2.40;;;;;;;18.95;57.10;96298.81;5004456;28;24977;-74
2022/07/19 00:26:19;;;;;;;4.45;2.40;;;;;;;19.02;57.82;96305.19;4998874;28;24827;-74
2022/07/19 00:28:46;;;;;;;5.70;2.38;;;;;;;18.98;58.12;96306.41;5008345;28;24482;-74
2022/07/19 00:31:12;;;;;;;3.23;1.87;;;;;;;18.69;58.98;96290.59;5005870;28;24485;-74
2022/07/19 00:33:39;;;;;;;4.53;2.15;;;;;;;18.50;59.17;96296.59;5002649;28;24974;-74
2022/07/19 00:36:07;;;;;;;2.72;2.00;;;;;;;18.52;58.89;96297.28;5005682;28;24452;-74
2022/07/19 00:38:33;;;;;;;5.50;2.15;;;;;;;18.47;59.38;96296.84;5001138;28;24440;-75
2022/07/19 00:41:01;;;;;;;2.55;2.10;;;;;;;18.46;59.36;96303.03;5005603;28;24448;-74
2022/07/19 00:43:28;;;;;;;3.30;2.35;;;;;;;18.45;59.33;96301.38;5008220;28;25046;-74
2022/07/19 00:45:55;;;;;;;4.65;1.90;;;;;;;18.46;59.15;96299.59;5009912;28;25020;-74
2022/07/19 00:48:22;;;;;;;5.15;2.30;;;;;;;18.44;59.25;96304.97;5009738;28;24802;-74
2022/07/19 00:50:49;;;;;;;5.97;2.25;;;;;;;18.43;59.78;96305.94;5005371;28;24432;-74
2022/07/19 00:53:18;;;;;;;3.28;2.25;;;;;;;18.31;60.05;96302.56;5004823;28;24531;-74
2022/07/19 00:55:46;;;;;;;5.72;2.03;;;;;;;18.16;60.76;96303.03;5003972;28;24436;-74
2022/07/19 00:58:14;;;;;;;4.20;2.42;;;;;;;17.94;61.39;96304.84;5007753;28;24441;-75
2022/07/19 01:00:41;;;;;;;3.30;2.05;;;;;;;17.84;61.65;96306.59;5011779;28;24530;-74
2022/07/19 01:03:08;;;;;;;4.07;2.20;;;;;;;17.85;61.78;96303.00;5003437;28;24792;-73
2022/07/19 01:05:35;;;;;;;4.78;2.00;;;;;;;17.81;61.86;96299.81;4999217;28;24554;-74
2022/07/19 01:08:02;;;;;;;3.53;2.27;;;;;;;17.88;61.25;96308.00;4999586;28;24481;-73
2022/07/19 01:10:30;;;;;;;2.90;2.22;;;;;;;17.97;61.24;96301.13;5006824;28;24989;-74
2022/07/19 01:12:57;;;;;;;6.90;2.40;;;;;;;17.98;62.15;96292.31;5007988;28;24440;-74
2022/07/19 01:15:25;;;;;;;3.42;2.00;;;;;;;17.93;62.23;96297.13;5007803;28;24439;-74
2022/07/19 01:17:53;;;;;;;3.22;2.05;;;;;;;17.79;62.74;96296.47;5005349;28;24499;-73
2022/07/19 01:20:21;;;;;;;4.10;2.53;;;;;;;17.88;62.59;96295.72;5008640;28;24429;-74
2022/07/19 01:22:48;;;;;;;3.90;1.92;;;;;;;17.76;62.96;96302.00;5001968;28;24444;-74
2022/07/19 01:25:16;;;;;;;3.92;2.20;;;;;;;17.57;63.71;96301.78;5007448;28;24498;-74
2022/07/19 01:27:44;;;;;;;4.55;2.20;;;;;;;17.55;63.83;96298.50;5003328;28;24456;-74
2022/07/19 01:30:13;;;;;;;5.47;2.25;;;;;;;17.63;63.44;96304.75;5012432;28;24783;-73
2022/07/19 01:32:39;;;;;;;3.55;2.20;;;;;;;17.75;62.93;96305.53;5009311;28;24444;-74
2022/07/19 01:35:08;;;;;;;5.57;2.47;;;;;;;17.77;62.77;96292.34;5012885;28;24433;-74
2022/07/19 01:37:34;;;;;;;4.87;2.17;;;;;;;17.70;63.40;96301.63;5009241;28;24536;-73
2022/07/19 01:40:02;;;;;;;3.25;2.17;;;;;;;17.50;64.11;96304.13;5013061;28;24500;-73
2022/07/19 01:42:29;;;;;;;6.65;2.15;;;;;;;17.50;64.00;96296.25;5001362;28;25045;-73
2022/07/19 01:44:56;;;;;;;2.88;2.10;;;;;;;17.56;64.16;96302.75;5007256;28;25007;-74
2022/07/19 01:47:22;;;;;;;3.53;2.23;;;;;;;17.63;63.57;96302.13;5012193;28;25051;-74
2022/07/19 01:49:49;;;;;;;3.15;2.42;;;;;;;17.68;62.72;96299.13;5008895;28;24429;-73
2022/07/19 01:52:15;;;;;;;2.97;2.20;;;;;;;17.73;62.68;96298.75;5009413;28;24444;-74
2022/07/19 01:54:42;;;;;;;3.35;2.00;;;;;;;17.82;61.47;96306.69;5006986;28;24452;-74
2022/07/19 01:57:10;;;;;;;2.20;1.80;;;;;;;17.73;62.50;96296.97;5004410;28;24448;-74
2022/07/19 01:59:51;;;;;;;4.13;2.25;;;;;;;17.52;62.96;96301.34;5012656;28;24440;-73
2022/07/19 02:02:18;;;;;;;10.85;2.15;;;;;;;17.89;61.92;96294.75;5001847;28;24440;-74
2022/07/19 02:04:44;;;;;;;7.72;2.53;;;;;;;17.76;62.06;96280.19;5012701;28;24440;-73
2022/07/19 02:07:11;;;;;;;3.22;2.47;;;;;;;17.14;64.56;96285.19;5011968;28;24483;-74
2022/07/19 02:09:37;;;;;;;4.93;2.08;;;;;;;16.99;64.67;96275.13;5012606;28;24814;-73
2022/07/19 02:12:04;;;;;;;2.95;2.20;;;;;;;17.05;64.28;96277.25;5010370;28;24444;-73
2022/07/19 02:14:32;;;;;;;3.90;2.28;;;;;;;17.02;64.60;96280.97;5012571;28;24440;-74
2022/07/19 02:16:58;;;;;;;4.05;2.63;;;;;;;17.00;64.75;96277.63;5009953;28;24436;-74
2022/07/19 02:19:25;;;;;;;2.50;2.07;;;;;;;16.72;66.37;96281.56;5007013;28;25011;-74
2022/07/19 02:21:51;;;;;;;2.55;2.03;;;;;;;16.67;66.43;96276.69;5006321;28;24970;-73
2022/07/19 02:24:18;;;;;;;3.20;2.10;;;;;;;16.69;66.41;96274.81;5004139;28;24444;-74
2022/07/19 02:26:44;;;;;;;3.80;2.58;;;;;;;16.76;66.06;96280.44;5012502;28;24464;-74
2022/07/19 02:29:11;;;;;;;3.00;2.28;;;;;;;16.85;65.81;96279.69;5007479;28;24442;-74
2022/07/19 02:31:39;;;;;;;7.50;2.58;;;;;;;16.86;66.03;96273.50;5010869;28;24439;-74
2022/07/19 02:34:05;;;;;;;3.53;2.40;;;;;;;16.93;65.63;96268.59;5009007;28;24444;-74
2022/07/19 02:36:32;;;;;;;3.13;2.10;;;;;;;16.97;65.59;96271.81;5010510;28;24439;-74
2022/07/19 02:38:59;;;;;;;2.42;2.00;;;;;;;16.93;65.63;96272.03;5007148;28;24503;-74
2022/07/19 02:41:25;;;;;;;2.45;2.15;;;;;;;16.86;65.78;96275.28;5008469;28;24535;-74
2022/07/19 02:43:52;;;;;;;4.00;2.33;;;;;;;16.87;65.83;96264.72;5002770;28;24436;-74
2022/07/19 02:46:18;;;;;;;4.20;2.47;;;;;;;16.89;65.99;96261.94;5011354;28;24460;-74
2022/07/19 02:48:46;;;;;;;2.88;2.30;;;;;;;16.98;65.51;96265.59;5002270;28;24495;-74
2022/07/19 02:51:12;;;;;;;2.47;2.28;;;;;;;16.98;65.75;96266.44;5007026;28;24443;-75
2022/07/19 02:53:39;;;;;;;2.67;1.73;;;;;;;16.86;66.02;96265.63;5002854;28;24437;-74
2022/07/19 02:56:06;;;;;;;3.28;2.33;;;;;;;16.76;66.53;96264.72;5010130;28;24580;-75
2022/07/19 02:58:33;;;;;;;2.70;2.10;;;;;;;16.71;66.47;96253.75;5010681;28;24432;-75
2022/07/19 03:00:59;;;;;;;2.42;2.13;;;;;;;16.72;66.24;96259.81;5005527;28;24436;-75
2022/07/19 03:03:44;;;;;;;2.70;2.17;;;;;;;16.73;66.18;96253.66;5010001;28;24439;-75
2022/07/19 03:06:13;;;;;;;2.80;2.10;;;;;;;16.76;66.12;96256.03;5005841;28;25024;-75
2022/07/19 03:08:39;;;;;;;3.53;2.30;;;;;;;16.89;65.83;96256.72;5007138;28;24444;-75
2022/07/19 03:11:06;;;;;;;2.83;2.10;;;;;;;16.50;67.06;96258.91;5009536;28;24444;-74
2022/07/19 03:13:32;;;;;;;3.03;2.10;;;;;;;16.28;68.44;96258.91;5008917;28;24436;-74
2022/07/19 03:15:59;;;;;;;2.83;2.13;;;;;;;16.23;68.70;96253.22;5001698;28;24494;-74
2022/07/19 03:18:25;;;;;;;7.75;2.58;;;;;;;16.25;68.35;96252.16;5008091;28;24444;-74
2022/07/19 03:20:52;;;;;;;3.15;2.25;;;;;;;16.23;68.72;96255.81;5008567;28;24822;-75
2022/07/19 03:23:20;;;;;;;3.22;2.35;;;;;;;16.11;69.72;96255.00;5008175;28;25025;-75
2022/07/19 03:25:46;;;;;;;4.30;2.53;;;;;;;16.11;69.67;96262.84;5009249;28;24448;-74
2022/07/19 03:28:13;;;;;;;3.85;2.53;;;;;;;16.01;70.13;96259.25;5009951;28;24460;-75
2022/07/19 03:30:39;;;;;;;6.43;2.40;;;;;;;16.03;69.88;96258.22;5008360;28;24794;-75
2022/07/19 03:33:06;;;;;;;3.78;2.47;;;;;;;16.24;69.73;96253.13;5007738;28;25049;-75
2022/07/19 03:35:32;;;;;;;3.33;2.47;;;;;;;16.25;69.63;96248.72;5005976;28;24499;-75
2022/07/19 03:37:58;;;;;;;3.33;2.47;;;;;;;15.99;70.68;96248.13;5007015;28;24432;-75
2022/07/19 03:40:26;;;;;;;4.72;2.30;;;;;;;15.93;70.55;96252.84;5007941;28;24440;-74
2022/07/19 03:42:53;;;;;;;3.45;2.42;;;;;;;15.68;72.02;96259.13;5006996;28;24463;-74
2022/07/19 03:45:19;;;;;;;3.70;2.10;;;;;;;15.59;72.53;96257.16;5002107;28;24433;-74
2022/07/19 03:47:46;;;;;;;4.60;2.38;;;;;;;15.65;72.07;96253.25;5005876;28;24997;-74
2022/07/19 03:50:12;;;;;;;2.47;2.10;;;;;;;15.62;72.60;96251.72;5009336;28;25028;-74
2022/07/19 03:52:38;;;;;;;4.13;2.55;;;;;;;15.66;72.15;96260.19;5005752;28;24448;-75
2022/07/19 03:55:05;;;;;;;3.47;2.60;;;;;;;15.68;72.43;96253.91;5002099;28;24447;-76
2022/07/19 03:57:33;;;;;;;2.83;2.53;;;;;;;15.80;71.62;96251.31;5002837;28;24981;-75
2022/07/19 03:59:59;;;;;;;4.57;2.85;;;;;;;15.73;71.64;96258.78;5008696;28;24443;-75
2022/07/19 04:02:26;;;;;;;2.80;2.47;;;;;;;15.83;71.70;96256.28;5002816;28;24443;-75
2022/07/19 04:04:52;;;;;;;3.13;2.50;;;;;;;15.54;73.80;96256.69;4998246;28;24437;-75
2022/07/19 04:07:19;;;;;;;4.07;2.60;;;;;;;15.48;74.01;96252.72;5006089;28;24461;-75
2022/07/19 04:09:45;;;;;;;4.67;2.50;;;;;;;15.55;73.48;96260.94;5009733;28;24831;-75
2022/07/19 04:12:12;;;;;;;2.53;2.28;;;;;;;15.64;73.52;96262.03;5006183;28;24572;-75
2022/07/19 04:14:39;;;;;;;2.65;2.45;;;;;;;15.70;73.44;96262.44;5009005;28;24502;-75
2022/07/19 04:17:06;;;;;;;3.65;2.50;;;;;;;15.81;72.49;96260.78;5010019;28;24799;-74
2022/07/19 04:19:32;;;;;;;2.97;2.40;;;;;;;15.90;72.26;96260.09;5008985;28;24443;-75
2022/07/19 04:21:59;;;;;;;3.95;2.85;;;;;;;16.07;71.20;96259.63;5009368;28;24448;-75
2022/07/19 04:24:25;;;;;;;4.53;2.60;;;;;;;15.88;72.31;96260.22;5009502;28;24486;-75
2022/07/19 04:26:52;;;;;;;4.32;2.83;;;;;;;15.80;72.94;96259.13;5006098;28;24463;-75
2022/07/19 04:29:18;;;;;;;4.47;2.22;;;;;;;15.87;72.74;96269.00;5008383;28;24439;-75
2022/07/19 04:31:46;;;;;;;7.22;2.72;;;;;;;15.97;72.38;96262.09;4997808;28;24433;-75
2022/07/19 04:34:12;;;;;;;3.53;2.47;;;;;;;16.03;72.05;96271.28;5009348;28;24443;-75
2022/07/19 04:36:39;;;;;;;7.95;3.38;;;;;;;16.25;70.65;96274.84;5009450;28;24838;-75
2022/07/19 04:39:05;;;;;;;6.38;3.97;;;;;;;16.30;70.93;96263.06;5008733;28;24794;-75
2022/07/19 04:41:32;;;;;;;4.05;3.15;;;;;;;16.45;71.03;96271.50;4996313;28;24442;-75
2022/07/19 04:43:58;;;;;;;4.50;2.80;;;;;;;16.57;70.55;96267.91;5009152;28;24443;-76
2022/07/19 04:46:24;;;;;;;9.93;2.97;;;;;;;16.44;72.35;96265.44;5008309;28;24452;-74
2022/07/19 04:48:52;;;;;;;3.47;2.55;;;;;;;16.37;74.10;96268.66;5009008;28;24807;-75
2022/07/19 04:51:19;;;;;;;4.45;2.78;;;;;;;16.55;74.75;96267.22;5004877;28;24487;-74
2022/07/19 04:53:45;;;;;;;5.25;3.00;;;;;;;16.62;73.99;96265.78;5004180;28;24986;-75
2022/07/19 04:56:12;;;;;;;7.80;3.10;;;;;;;16.55;73.00;96264.59;5002503;28;24969;-76
2022/07/19 04:58:38;;;;;;;5.75;3.65;;;;;;;16.48;74.08;96255.56;5007517;28;24498;-75
2022/07/19 05:01:05;;;;;;;5.78;3.80;;;;;;;16.51;74.80;96262.34;5005114;28;24440;-76
2022/07/19 05:03:31;;;;;;;4.93;3.28;;;;;;;16.62;73.56;96268.41;5004437;28;24443;-74
2022/07/19 05:05:59;;;;;;;8.20;3.53;;;;;;;16.75;72.95;96263.06;5002844;28;24441;-75
2022/07/19 05:08:25;;;;;;;6.38;3.70;;;;;;;16.95;71.10;96263.25;5010659;28;25022;-75
2022/07/19 05:10:52;;;;;;;4.38;3.40;;;;;;;17.14;69.67;96264.25;5013042;28;24439;-75
2022/07/19 05:13:18;;;;;;;4.55;3.53;;;;;;;17.26;68.15;96262.41;5011164;28;24437;-76
2022/07/19 05:15:45;;;;;;;6.10;3.40;;;;;;;17.48;67.20;96269.34;5004818;28;24441;-74
2022/07/19 05:18:11;;;;;;;7.03;3.53;;;;;;;17.56;66.62;96266.91;5008854;28;24498;-75
2022/07/19 05:20:37;;;;;;;4.85;3.50;;;;;;;17.50;65.02;96258.72;5008348;28;25002;-75
2022/07/19 05:23:07;;;;;;;4.95;3.08;;;;;;;17.56;64.96;96264.31;5005808;28;24441;-76
2022/07/19 05:25:33;;;;;;;3.35;2.97;;;;;;;17.73;64.41;96256.84;5011548;28;24445;-75
2022/07/19 05:28:00;;;;;;;4.35;3.30;;;;;;;17.92;63.57;96259.59;5006255;28;24457;-74
2022/07/19 05:30:26;;;;;;;6.43;3.58;;;;;;;17.89;62.83;96262.47;5009697;28;24543;-75
2022/07/19 05:32:53;;;;;;;5.25;3.42;;;;;;;18.02;61.83;96263.13;5012031;28;24841;-74
2022/07/19 05:35:19;;;;;;;3.67;3.00;;;;;;;18.17;61.53;96260.97;5008617;28;24850;-74
2022/07/19 05:37:46;;;;;;;9.88;3.30;;;;;;;18.28;61.02;96262.66;5005088;28;24703;-75
2022/07/19 05:40:14;;;;;;;4.95;3.20;;;;;;;18.40;60.66;96266.88;5009349;28;24459;-78
2022/07/19 05:42:40;;;;;;;2.97;2.70;;;;;;;18.48;60.02;96269.66;5006975;28;24525;-75
2022/07/19 05:45:07;;;;;;;3.13;2.75;;;;;;;18.50;59.42;96265.13;5008747;28;24432;-75
2022/07/19 05:47:34;;;;;;;4.97;2.95;;;;;;;18.36;60.03;96265.47;5011367;28;24542;-75
2022/07/19 05:50:00;;;;;;;4.35;3.20;;;;;;;18.42;60.21;96267.53;5007506;28;24494;-75
2022/07/19 05:52:27;;;;;;;3.80;3.40;;;;;;;18.41;59.97;96271.13;5002787;28;24436;-74
2022/07/19 05:54:53;;;;;;;5.03;3.40;;;;;;;18.52;59.97;96265.81;5007312;28;24966;-75
2022/07/19 05:57:21;;;;;;;5.45;3.30;;;;;;;18.47;59.88;96264.56;5009440;28;25016;-75
2022/07/19 05:59:48;;;;;;;3.95;3.15;;;;;;;18.72;59.57;96273.75;5007579;28;24437;-75
2022/07/19 06:02:14;;;;;;;6.65;3.55;;;;;;;18.93;58.93;96276.28;5008737;28;24452;-75
2022/07/19 06:04:41;;;;;;;5.85;2.95;;;;;;;19.24;58.79;96271.75;5011931;28;24440;-74
2022/07/19 06:07:07;;;;;;;4.87;3.30;;;;;;;19.61;58.30;96268.44;5009519;28;24441;-75
2022/07/19 06:09:34;;;;;;;5.05;3.28;;;;;;;19.91;56.48;96262.19;5007828;28;24447;-77
2022/07/19 06:12:00;;;;;;;3.85;3.00;;;;;;;20.16;56.01;96266.84;5010162;28;24491;-76
2022/07/19 06:14:28;;;;;;;3.88;3.13;;;;;;;20.46;55.51;96265.75;4997509;28;24483;-77
2022/07/19 06:16:54;;;;;;;3.83;2.88;;;;;;;20.66;54.41;96260.44;5011546;28;24440;-76
2022/07/19 06:19:21;;;;;;;4.47;2.72;;;;;;;20.89;54.56;96266.13;5008067;28;24448;-77
2022/07/19 06:21:47;;;;;;;4.20;3.38;;;;;;;21.08;52.68;96263.38;5004566;28;24440;-77
2022/07/19 06:24:13;;;;;;;4.68;3.30;;;;;;;21.07;52.42;96271.44;5000490;28;24432;-76
2022/07/19 06:26:40;;;;;;;7.60;3.73;;;;;;;20.87;52.87;96261.00;5003381;28;24447;-76
2022/07/19 06:29:06;;;;;;;5.15;3.15;;;;;;;20.95;52.58;96262.88;5012173;28;24448;-77
2022/07/19 06:31:34;;;;;;;4.70;3.30;;;;;;;20.93;52.80;96267.50;5010552;28;24794;-76
2022/07/19 06:34:01;;;;;;;5.00;2.90;;;;;;;21.24;52.70;96262.69;5008017;28;24440;-76
2022/07/19 06:36:27;;;;;;;6.32;3.15;;;;;;;21.44;52.14;96264.25;5004898;28;24447;-74
2022/07/19 06:38:54;;;;;;;6.80;3.45;;;;;;;21.39;51.76;96269.13;5007138;28;24522;-74
2022/07/19 06:41:20;;;;;;;5.05;3.20;;;;;;;21.34;51.87;96252.94;5003987;28;24498;-74
2022/07/19 06:43:47;;;;;;;4.88;3.08;;;;;;;21.48;51.08;96260.31;5007146;28;24440;-74
2022/07/19 06:46:13;;;;;;;3.42;2.85;;;;;;;21.93;51.28;96255.88;5003776;28;24444;-75
2022/07/19 06:48:41;;;;;;;7.30;3.10;;;;;;;22.22;49.62;96256.41;4999964;28;24546;-76
2022/07/19 06:51:08;;;;;;;4.65;2.75;;;;;;;22.32;49.52;96255.47;5005761;28;24504;-75
2022/07/19 06:53:35;;;;;;;7.05;2.95;;;;;;;22.56;48.76;96252.94;5008552;28;24444;-77
2022/07/19 06:56:01;;;;;;;3.67;2.97;;;;;;;22.79;48.10;96258.47;5007603;28;24437;-76
2022/07/19 06:58:29;;;;;;;6.95;3.63;;;;;;;22.69;48.49;96249.84;5000972;28;24803;-77
2022/07/19 07:00:55;;;;;;;9.40;3.30;;;;;;;22.82;47.80;96249.41;4999504;28;24448;-76
2022/07/19 07:03:22;;;;;;;6.40;3.00;;;;;;;22.90;47.22;96250.25;5008235;28;24428;-76
2022/07/19 07:05:50;;;;;;;4.97;2.97;;;;;;;23.22;46.88;96254.00;5006537;28;24440;-76
2022/07/19 07:08:18;;;;;;;6.13;3.00;;;;;;;23.41;46.83;96260.78;5007477;28;21427;-76
2022/07/19 07:10:44;;;;;;;6.23;2.83;;;;;;;23.50;45.62;96258.97;5007074;28;24452;-76
2022/07/19 07:13:11;;;;;;;4.40;2.78;;;;;;;23.61;44.40;96251.53;5007618;28;24444;-77
2022/07/19 07:15:39;;;;;;;5.03;2.40;;;;;;;23.67;43.00;96256.19;5007577;28;24441;-76
2022/07/19 07:18:06;;;;;;;4.90;2.83;;;;;;;23.82;42.92;96255.53;5007025;28;24466;-77
2022/07/19 07:20:34;;;;;;;9.50;2.40;;;;;;;24.15;41.56;96251.03;5010810;28;24435;-76
2022/07/19 07:23:01;;;;;;;4.07;2.45;;;;;;;24.11;41.79;96250.53;5009917;28;24498;-76
2022/07/19 07:25:28;;;;;;;6.47;2.85;;;;;;;24.19;41.63;96243.56;4997757;28;24982;-76
2022/07/19 07:27:54;;;;;;;4.15;2.25;;;;;;;24.47;41.05;96244.81;4995480;28;24453;-76
2022/07/19 07:30:21;;;;;;;5.35;2.50;;;;;;;24.71;41.32;96243.09;5002472;28;24435;-76
2022/07/19 07:32:47;;;;;;;4.57;2.45;;;;;;;24.99;40.92;96240.78;5005515;28;24499;-75
2022/07/19 07:35:14;;;;;;;4.15;2.85;;;;;;;25.15;40.17;96239.91;5010540;28;24841;-74
2022/07/19 07:37:40;;;;;;;5.63;2.70;;;;;;;25.37;39.58;96238.28;5004852;28;24528;-76
2022/07/19 07:40:09;;;;;;;4.07;2.40;;;;;;;25.46;39.69;96237.19;5010486;28;25031;-76
2022/07/19 07:42:36;;;;;;;4.20;2.53;;;;;;;25.52;39.21;96239.16;5004786;28;24437;-76
2022/07/19 07:45:03;;;;;;;2.58;1.88;;;;;;;25.74;39.23;96235.63;5010289;28;24969;-76
2022/07/19 07:47:29;;;;;;;4.72;2.72;;;;;;;25.89;38.05;96234.88;5004492;28;25045;-76
2022/07/19 07:49:56;;;;;;;4.35;2.25;;;;;;;26.04;36.95;96230.41;5010516;28;24429;-75
2022/07/19 07:52:22;;;;;;;5.05;2.20;;;;;;;26.16;36.74;96228.94;5005248;28;24439;-76
2022/07/19 07:54:50;;;;;;;14.95;2.55;;;;;;;26.49;35.49;96223.31;5010282;28;24444;-77
2022/07/19 07:57:18;;;;;;;2.73;1.93;;;;;;;26.54;35.23;96223.56;5006026;28;24451;-76
2022/07/19 07:59:44;;;;;;;5.15;2.00;;;;;;;26.93;34.58;96233.88;5009716;28;24420;-74
2022/07/19 08:02:10;;;;;;;3.45;2.08;;;;;;;27.25;34.58;96229.97;5007064;28;24432;-76
2022/07/19 08:04:37;;;;;;;3.38;1.63;;;;;;;27.64;35.68;96223.34;5009547;28;24428;-76
2022/07/19 08:07:04;;;;;;;3.22;2.00;;;;;;;27.78;32.94;96215.53;5007140;28;24439;-76
2022/07/19 08:09:31;;;;;;;4.03;1.98;;;;;;;28.08;32.87;96208.97;5007241;28;24460;-79
2022/07/19 08:11:57;;;;;;;6.07;2.28;;;;;;;28.82;31.00;96210.19;4999257;28;25049;-76
2022/07/19 08:14:25;;;;;;;2.53;1.90;;;;;;;29.30;30.60;96207.50;5001924;28;24542;-75
2022/07/19 08:16:51;;;;;;;2.37;1.53;;;;;;;29.65;27.86;96208.97;5007159;28;24444;-75
2022/07/19 08:19:18;;;;;;;2.85;1.70;;;;;;;29.79;28.33;96208.97;5006649;28;24441;-76
2022/07/19 08:21:44;;;;;;;1.90;1.40;;;;;;;30.13;26.28;96198.03;5001784;28;24490;-76
2022/07/19 08:24:11;;;;;;;5.20;1.73;;;;;;;30.25;26.54;96208.94;5007567;28;24451;-75
2022/07/19 08:26:37;;;;;;;5.55;1.92;;;;;;;30.57;26.86;96206.41;5008774;28;24444;-76
2022/07/19 08:29:04;;;;;;;3.67;1.67;;;;;;;30.55;26.01;96205.78;5001823;28;24866;-75
2022/07/19 08:31:31;;;;;;;3.10;1.80;;;;;;;30.66;29.03;96207.78;5004887;28;24491;-75
2022/07/19 08:33:58;;;;;;;3.00;1.70;;;;;;;30.87;27.45;96203.22;5009537;28;24482;-77
2022/07/19 08:36:24;;;;;;;2.38;1.50;;;;;;;30.91;26.29;96204.44;4996973;28;24444;-75
2022/07/19 08:38:51;;;;;;;4.45;1.77;;;;;;;30.92;25.96;96198.84;5004585;28;24436;-75
2022/07/19 08:41:17;;;;;;;2.58;1.63;;;;;;;30.94;24.90;96202.16;5009902;28;24870;-74
2022/07/19 08:43:44;;;;;;;3.20;1.75;;;;;;;31.05;25.50;96197.97;5006548;28;24436;-74
2022/07/19 08:46:10;;;;;;;5.80;2.10;;;;;;;30.95;24.96;96198.44;5010818;28;24547;-75
2022/07/19 08:48:39;;;;;;;5.18;1.90;;;;;;;31.11;25.67;96205.13;4999636;28;24456;-76
2022/07/19 08:51:06;;;;;;;2.60;1.90;;;;;;;31.29;25.33;96207.09;5007637;28;24440;-76
2022/07/19 08:53:37;;;;;;;1.90;1.65;;;;;;;31.42;26.43;96196.34;5012678;28;24436;-75
2022/07/19 08:57:56;;;;;;;3.67;1.70;;;;;;;31.40;24.92;96193.03;5013348;28;24830;-74
2022/07/19 08:58:51;;;;;;;3.63;1.70;;;;;;;31.55;23.15;96201.56;5003623;28;24416;-73
2022/07/19 09:01:17;;;;;;;2.90;1.70;;;;;;;31.61;23.18;96207.13;5010337;28;24523;-75
2022/07/19 09:04:10;;;;;;;4.03;1.92;;;;;;;31.60;23.34;96208.97;5001772;28;24482;-75
2022/07/19 09:06:45;;;;;;;3.65;1.75;;;;;;;31.87;24.31;96204.25;5001180;28;24465;-74
2022/07/19 09:09:13;;;;;;;2.47;1.67;;;;;;;31.89;24.24;96217.41;4997830;28;24453;-76
2022/07/19 09:11:48;;;;;;;4.50;1.90;;;;;;;31.46;23.82;96210.09;5001925;28;24445;-75
2022/07/19 09:14:16;;;;;;;5.68;2.20;;;;;;;31.39;22.40;96210.16;5003835;28;24444;-75
2022/07/19 09:16:50;;;;;;;4.72;2.05;;;;;;;31.44;23.27;96204.94;5002025;28;24473;-75
2022/07/19 09:19:18;;;;;;;5.03;1.98;;;;;;;31.45;22.40;96205.81;4998639;28;24433;-74
2022/07/19 09:21:53;;;;;;;5.18;1.80;;;;;;;31.67;23.28;96200.88;5003844;28;24802;-75
2022/07/19 09:24:19;;;;;;;4.50;1.90;;;;;;;31.91;22.29;96208.13;5012168;28;25016;-75
2022/07/19 09:26:56;;;;;;;4.85;1.70;;;;;;;31.92;22.44;96212.44;5012903;28;24482;-75
2022/07/19 09:29:22;;;;;;;4.87;1.97;;;;;;;31.99;22.72;96212.38;5007201;28;24499;-75
2022/07/19 09:32:06;;;;;;;4.20;1.92;;;;;;;31.99;22.11;96205.16;5008612;28;24444;-75
2022/07/19 09:34:36;;;;;;;5.20;2.08;;;;;;;32.11;22.13;96204.44;5009218;28;24463;-75
2022/07/19 09:37:11;;;;;;;3.67;1.60;;;;;;;32.32;21.81;96205.88;4999304;28;24444;-74
2022/07/19 09:39:39;;;;;;;4.20;2.03;;;;;;;32.31;21.69;96199.69;5004936;28;24448;-75
2022/07/19 09:42:06;;;;;;;2.67;1.83;;;;;;;32.42;22.22;96195.50;5007328;28;24546;-75
2022/07/19 09:44:32;;;;;;;4.68;2.40;;;;;;;32.36;21.65;96197.16;5002097;28;25008;-75
2022/07/19 09:46:58;;;;;;;2.92;1.67;;;;;;;32.42;22.76;96201.69;5008812;28;24440;-75
2022/07/19 09:49:25;;;;;;;4.25;1.80;;;;;;;32.46;23.46;96194.00;5001533;28;24532;-75
2022/07/19 09:51:54;;;;;;;5.28;1.75;;;;;;;32.47;22.49;96192.94;5006282;28;24441;-75
2022/07/19 09:54:23;;;;;;;3.40;1.80;;;;;;;32.38;24.60;96189.72;5006079;28;25061;-75
2022/07/19 09:56:51;;;;;;;7.40;1.80;;;;;;;32.10;23.62;96190.22;5011209;28;24440;-75
2022/07/19 09:59:18;;;;;;;5.50;1.75;;;;;;;32.14;22.20;96190.59;5010416;28;24436;-75
2022/07/19 10:01:48;;;;;;;5.07;2.00;;;;;;;32.35;22.24;96192.84;5007986;28;24440;-74
2022/07/19 10:04:16;;;;;;;4.53;1.90;;;;;;;32.26;23.03;96186.97;5010774;28;24443;-75
2022/07/19 10:06:44;;;;;;;5.35;1.85;;;;;;;32.47;24.04;96195.63;5014981;28;24443;-74
2022/07/19 10:09:15;;;;;;;9.93;2.00;;;;;;;32.48;22.46;96187.38;5010676;28;24811;-75
2022/07/19 10:11:42;;;;;;;3.03;1.83;;;;;;;32.81;22.07;96191.50;5004401;28;24443;-75
2022/07/19 10:14:10;;;;;;;4.07;1.65;;;;;;;33.00;22.93;96184.25;5012030;28;24428;-74
2022/07/19 10:16:46;;;;;;;3.80;1.63;;;;;;;32.92;23.13;96189.91;5001050;28;24448;-75
2022/07/19 10:19:18;;;;;;;6.22;1.90;;;;;;;32.98;23.45;96189.88;5000736;28;25055;-74
2022/07/19 10:21:46;;;;;;;6.57;1.93;;;;;;;32.96;21.75;96188.44;5006390;28;25082;-75
2022/07/19 10:24:14;;;;;;;5.15;1.90;;;;;;;32.84;21.74;96174.16;5003616;28;24491;-76
2022/07/19 10:26:42;;;;;;;2.42;1.63;;;;;;;32.92;21.35;96189.91;5003464;28;24467;-76
2022/07/19 10:29:11;;;;;;;5.10;1.90;;;;;;;33.06;22.16;96179.88;5008262;28;24460;-76
2022/07/19 10:31:39;;;;;;;3.33;2.08;;;;;;;33.13;22.49;96172.53;5004888;28;24437;-76
2022/07/19 10:34:08;;;;;;;5.07;1.90;;;;;;;33.20;23.53;96168.72;5010406;28;24452;-76
2022/07/19 10:36:39;;;;;;;4.05;1.92;;;;;;;33.24;24.64;96161.84;5006787;28;24449;-76
2022/07/19 10:39:30;;;;;;;4.20;1.95;;;;;;;32.99;22.59;96153.13;5009757;28;24440;-75
2022/07/19 10:42:17;;;;;;;6.38;1.92;;;;;;;32.54;24.13;96156.16;5008172;28;24440;-75
2022/07/19 10:45:10;;;;;;;4.25;1.80;;;;;;;32.56;23.90;96153.25;4999479;28;24498;-75
2022/07/19 10:47:59;;;;;;;10.40;2.15;;;;;;;32.80;22.57;96149.63;5007707;28;24531;-76
2022/07/19 10:50:43;;;;;;;7.65;1.80;;;;;;;32.89;21.87;96160.88;5006086;28;25134;-75
2022/07/19 10:53:09;;;;;;;9.68;2.40;;;;;;;33.00;23.14;96150.22;5000153;28;24552;-75
2022/07/19 10:55:37;;;;;;;5.80;1.90;;;;;;;32.82;21.88;96152.09;5006154;28;24486;-74
2022/07/19 10:58:11;;;;;;;5.60;1.95;;;;;;;32.67;21.02;96147.97;4999662;28;24444;-75
2022/07/19 11:00:42;;;;;;;4.30;2.13;;;;;;;32.86;23.04;96143.38;5006553;28;24437;-74
2022/07/19 11:03:29;;;;;;;6.15;2.15;;;;;;;32.90;21.85;96144.56;5006913;28;24441;-75
2022/07/19 11:05:57;;;;;;;5.97;2.35;;;;;;;33.00;23.23;96139.50;5004344;28;24850;-75
2022/07/19 11:08:33;;;;;;;4.97;1.92;;;;;;;33.13;21.46;96132.28;5005906;28;24814;-74
2022/07/19 11:11:06;;;;;;;4.90;1.80;;;;;;;33.30;22.41;96125.22;5004900;28;24491;-74
2022/07/19 11:13:32;;;;;;;3.28;2.10;;;;;;;33.38;22.49;96132.13;4999118;28;24440;-74
2022/07/19 11:16:00;;;;;;;4.80;2.20;;;;;;;33.40;21.43;96122.75;5004757;28;24440;-75
2022/07/19 11:18:27;;;;;;;3.33;1.92;;;;;;;33.38;23.17;96124.88;5004924;28;24843;-75
2022/07/19 11:20:57;;;;;;;5.93;2.13;;;;;;;33.48;21.36;96127.00;5009691;28;24788;-72
2022/07/19 11:23:24;;;;;;;5.30;2.10;;;;;;;33.47;21.64;96125.38;5007607;28;24444;-72
2022/07/19 11:25:51;;;;;;;9.48;2.38;;;;;;;33.33;22.85;96121.22;5005266;28;24444;-71
2022/07/19 11:28:23;;;;;;;5.45;2.35;;;;;;;33.12;22.85;96109.19;5001785;28;24460;-71
2022/07/19 11:30:50;;;;;;;5.40;1.98;;;;;;;32.90;22.97;96117.72;5009779;28;24456;-72
2022/07/19 11:33:18;;;;;;;4.97;1.95;;;;;;;32.83;22.52;96122.38;5003993;28;24444;-71
2022/07/19 11:35:56;;;;;;;6.78;2.22;;;;;;;32.91;21.59;96103.25;5009106;28;24830;-71
2022/07/19 11:38:22;;;;;;;4.60;2.00;;;;;;;32.97;21.02;96099.69;5007977;28;24443;-71